Time;durP1;ratioP1;P1;durP2;ratioP2;P2;SDS_P1;SDS_P2;PMS_P1;PMS_P2;Temp;Humidity;BMP_temperature;BMP_pressure;BME280_temperature;BME280_humidity;BME280_pressure;Samples;Min_cycle;Max_cycle;Signal;HPM_P1;HPM_P2
2024/01/14 00:00:58;;;;;;;11.10;9.27;;;;;;;3.11;100.00;99693.34;5004792;28;20242;-77
2024/01/14 00:03:24;;;;;;;11.23;9.40;;;;;;;3.03;100.00;99700.19;5007980;28;20623;-77
2024/01/14 00:05:51;;;;;;;12.57;9.53;;;;;;;3.14;100.00;99705.34;5003803;28;20856;-77
2024/01/14 00:08:17;;;;;;;10.97;9.47;;;;;;;3.16;100.00;99717.38;5008597;28;20208;-77
2024/01/14 00:10:45;;;;;;;8.77;7.80;;;;;;;3.16;100.00;99724.25;5007980;28;20267;-77
2024/01/14 00:13:12;;;;;;;9.97;8.37;;;;;;;2.83;100.00;99720.81;5003528;28;20285;-77
2024/01/14 00:15:39;;;;;;;7.83;7.07;;;;;;;2.92;100.00;99728.56;5006134;28;20282;-78
2024/01/14 00:18:07;;;;;;;11.03;7.30;;;;;;;3.27;100.00;99712.22;5005889;28;20380;-78
2024/01/14 00:20:34;;;;;;;11.27;8.73;;;;;;;3.28;100.00;99718.22;5004277;28;20233;-78
2024/01/14 00:23:01;;;;;;;9.67;8.40;;;;;;;3.24;100.00;99738.00;5007717;28;20258;-77
2024/01/14 00:25:27;;;;;;;8.00;7.20;;;;;;;3.28;100.00;99747.47;4997199;28;20220;-76
2024/01/14 00:27:53;;;;;;;8.20;7.03;;;;;;;3.24;100.00;99750.03;4996878;28;20219;-78
2024/01/14 00:30:21;;;;;;;8.33;7.27;;;;;;;3.25;100.00;99756.91;5004119;28;20207;-77
2024/01/14 00:32:47;;;;;;;9.67;8.77;;;;;;;3.03;100.00;99744.00;5002485;28;20200;-76
2024/01/14 00:35:14;;;;;;;9.87;8.77;;;;;;;3.18;100.00;99735.44;4996956;28;20229;-77
2024/01/14 00:37:41;;;;;;;10.07;9.07;;;;;;;3.19;100.00;99739.72;5003899;28;20591;-77
2024/01/14 00:40:09;;;;;;;10.53;8.87;;;;;;;3.07;100.00;99732.88;5010368;28;20210;-78
2024/01/14 00:42:35;;;;;;;12.63;10.03;;;;;;;3.18;100.00;99709.66;5011916;28;20236;-78
2024/01/14 00:45:03;;;;;;;10.63;8.97;;;;;;;3.07;100.00;99711.34;5000745;28;20207;-78
2024/01/14 00:47:32;;;;;;;12.33;9.67;;;;;;;3.25;100.00;99698.47;5015481;28;20621;-77
2024/01/14 00:49:58;;;;;;;13.67;9.77;;;;;;;3.13;100.00;99711.34;5014423;28;20650;-79
2024/01/14 00:52:25;;;;;;;10.87;9.80;;;;;;;2.90;100.00;99707.06;5011796;28;20658;-79
2024/01/14 00:54:51;;;;;;;11.93;10.23;;;;;;;2.94;100.00;99689.88;5008227;28;20232;-76
2024/01/14 00:57:17;;;;;;;11.87;10.33;;;;;;;3.09;100.00;99658.06;5008721;28;20246;-77
2024/01/14 00:59:44;;;;;;;14.50;10.67;;;;;;;3.05;100.00;99646.91;5006516;28;20204;-78
2024/01/14 01:02:10;;;;;;;13.60;10.90;;;;;;;3.09;100.00;99638.31;5014216;28;20209;-78
2024/01/14 01:04:38;;;;;;;12.23;10.77;;;;;;;3.02;100.00;99631.44;5004209;28;20704;-78
2024/01/14 01:07:04;;;;;;;18.77;11.67;;;;;;;3.17;100.00;99618.53;5007838;28;20227;-78
2024/01/14 01:09:32;;;;;;;16.30;11.27;;;;;;;3.04;100.00;99619.41;5009111;28;20207;-77
2024/01/14 01:11:58;;;;;;;16.73;11.03;;;;;;;3.05;100.00;99613.38;5005234;28;20241;-78
2024/01/14 01:14:24;;;;;;;14.60;10.90;;;;;;;2.87;100.00;99601.38;5008269;28;20286;-76
2024/01/14 01:16:53;;;;;;;13.93;11.27;;;;;;;3.07;100.00;99578.16;5007156;28;20287;-78
2024/01/14 01:19:20;;;;;;;12.70;11.00;;;;;;;2.97;100.00;99589.34;5008303;28;20354;-78
2024/01/14 01:21:47;;;;;;;12.90;11.10;;;;;;;3.01;100.00;99572.16;5008354;28;20235;-76
2024/01/14 01:24:14;;;;;;;18.33;12.10;;;;;;;3.08;100.00;99574.72;5003751;28;20540;-79
2024/01/14 01:26:41;;;;;;;12.70;11.40;;;;;;;3.15;100.00;99571.28;4998364;28;20247;-77
2024/01/14 01:29:07;;;;;;;13.60;10.83;;;;;;;2.93;100.00;99587.63;4997106;28;20218;-78
2024/01/14 01:31:34;;;;;;;10.67;9.67;;;;;;;2.91;100.00;99572.16;4997724;28;20205;-78
2024/01/14 01:34:00;;;;;;;10.47;9.47;;;;;;;3.00;100.00;99560.16;4997363;28;20227;-78
2024/01/14 01:36:26;;;;;;;10.93;9.80;;;;;;;2.88;100.00;99549.00;4998329;28;20220;-78
2024/01/14 01:38:54;;;;;;;11.03;9.00;;;;;;;2.79;100.00;99551.56;4997823;28;20211;-78
2024/01/14 01:41:22;;;;;;;11.77;9.10;;;;;;;2.93;100.00;99555.00;4997806;28;20212;-77
2024/01/14 01:43:50;;;;;;;11.03;9.47;;;;;;;2.93;100.00;99549.84;4997432;28;20210;-77
2024/01/14 01:46:16;;;;;;;9.37;7.50;;;;;;;3.05;100.00;99561.81;4998309;28;20239;-79
2024/01/14 01:48:43;;;;;;;8.80;7.93;;;;;;;2.98;100.00;99570.44;4998887;28;20214;-78
2024/01/14 01:51:11;;;;;;;9.33;8.33;;;;;;;2.87;100.00;99578.19;4998214;28;20230;-77
2024/01/14 01:53:40;;;;;;;9.40;8.47;;;;;;;3.12;100.00;99565.25;4999702;28;20255;-78
2024/01/14 01:56:08;;;;;;;10.63;8.60;;;;;;;2.93;100.00;99565.31;4997969;28;20726;-78
2024/01/14 01:58:34;;;;;;;10.37;8.70;;;;;;;2.88;100.00;99555.88;4998665;28;20574;-79
2024/01/14 02:01:05;;;;;;;11.00;9.43;;;;;;;2.75;100.00;99552.44;4998956;28;20240;-79
2024/01/14 02:03:31;;;;;;;10.73;9.00;;;;;;;2.89;100.00;99542.09;4998291;28;20231;-79
2024/01/14 02:05:59;;;;;;;10.60;8.97;;;;;;;2.75;100.00;99540.41;4997030;28;20220;-78
2024/01/14 02:08:26;;;;;;;11.10;9.10;;;;;;;3.06;100.00;99540.34;4996997;28;20754;-78
2024/01/14 02:10:53;;;;;;;10.77;8.40;;;;;;;2.76;100.00;99543.88;4995716;28;20230;-77
2024/01/14 02:13:20;;;;;;;11.70;8.67;;;;;;;2.94;100.00;99536.09;4990194;28;20199;-79
2024/01/14 02:15:48;;;;;;;9.63;8.73;;;;;;;3.12;100.00;99527.44;4998228;28;20698;-79
2024/01/14 02:18:14;;;;;;;10.43;8.47;;;;;;;3.12;100.00;99531.75;4999116;28;20204;-78
2024/01/14 02:20:41;;;;;;;10.73;9.13;;;;;;;3.01;100.00;99536.06;4998782;28;20204;-79
2024/01/14 02:23:10;;;;;;;10.67;9.57;;;;;;;2.78;100.00;99532.69;4999186;28;20213;-79
2024/01/14 02:25:38;;;;;;;9.93;8.93;;;;;;;2.69;100.00;99522.38;4999071;28;20252;-79
2024/01/14 02:28:05;;;;;;;9.40;8.43;;;;;;;2.92;100.00;99501.72;5005980;28;20234;-79
2024/01/14 02:30:33;;;;;;;11.53;10.30;;;;;;;2.89;100.00;99493.97;5015322;28;20232;-77
2024/01/14 02:32:59;;;;;;;10.53;9.20;;;;;;;2.88;100.00;99483.72;5016132;28;20231;-77
2024/01/14 02:35:26;;;;;;;13.17;10.93;;;;;;;2.93;100.00;99464.78;5014983;28;20232;-77
2024/01/14 02:37:52;;;;;;;13.03;10.90;;;;;;;2.85;100.00;99478.53;5015748;28;20202;-77
2024/01/14 02:40:20;;;;;;;13.57;11.60;;;;;;;2.83;100.00;99473.38;5013317;28;20223;-76
2024/01/14 02:42:48;;;;;;;13.17;11.00;;;;;;;2.86;100.00;99468.25;4995044;28;20200;-77
2024/01/14 02:45:14;;;;;;;14.13;11.37;;;;;;;2.84;100.00;99461.38;4996204;28;20254;-78
2024/01/14 02:47:41;;;;;;;15.17;11.17;;;;;;;2.83;100.00;99470.81;4996745;28;20230;-78
2024/01/14 02:50:07;;;;;;;15.00;9.97;;;;;;;2.82;100.00;99458.81;4995693;28;20234;-79
2024/01/14 02:52:34;;;;;;;11.97;9.93;;;;;;;2.77;100.00;99471.72;4996841;28;20208;-78
2024/01/14 02:55:00;;;;;;;10.70;9.50;;;;;;;2.65;100.00;99487.19;4991833;28;20260;-76
2024/01/14 02:57:26;;;;;;;11.67;9.80;;;;;;;2.64;100.00;99485.47;4998252;28;20260;-79
2024/01/14 02:59:54;;;;;;;11.90;9.97;;;;;;;2.85;100.00;99486.28;4996647;28;20215;-79
2024/01/14 03:02:20;;;;;;;10.47;9.33;;;;;;;2.76;100.00;99482.88;4986582;28;20204;-76
2024/01/14 03:04:49;;;;;;;11.13;9.97;;;;;;;2.67;100.00;99493.19;4994665;28;20207;-77
2024/01/14 03:07:15;;;;;;;13.23;10.50;;;;;;;2.87;100.00;99487.13;4996481;28;20227;-77
2024/01/14 03:09:41;;;;;;;12.70;10.73;;;;;;;2.67;100.00;99498.34;4995977;28;20236;-77
2024/01/14 03:12:08;;;;;;;14.57;10.97;;;;;;;2.55;100.00;99493.22;4995383;28;20208;-78
2024/01/14 03:14:35;;;;;;;12.77;10.93;;;;;;;2.49;100.00;99476.06;4995401;28;20235;-78
2024/01/14 03:17:03;;;;;;;14.80;10.53;;;;;;;2.63;100.00;99478.59;4995924;28;20583;-78
2024/01/14 03:19:29;;;;;;;12.37;11.07;;;;;;;2.68;100.00;99482.03;4995049;28;20212;-77
2024/01/14 03:21:57;;;;;;;12.10;10.07;;;;;;;2.33;100.00;99493.25;4995176;28;20504;-78
2024/01/14 03:24:23;;;;;;;13.57;10.80;;;;;;;2.39;100.00;99480.34;4995815;28;20244;-78
2024/01/14 03:26:50;;;;;;;13.50;9.93;;;;;;;2.41;100.00;99470.06;4996606;28;20284;-78
2024/01/14 03:29:16;;;;;;;11.63;10.40;;;;;;;2.45;100.00;99470.91;4994743;28;20212;-78
2024/01/14 03:31:44;;;;;;;11.33;9.70;;;;;;;2.41;100.00;99466.63;4995736;28;20200;-78
2024/01/14 03:34:12;;;;;;;16.27;10.17;;;;;;;2.39;100.00;99462.34;4994271;28;20203;-78
2024/01/14 03:36:38;;;;;;;12.47;9.83;;;;;;;2.50;100.00;99458.91;4995783;28;20256;-78
2024/01/14 03:39:05;;;;;;;10.53;9.07;;;;;;;2.64;100.00;99446.00;5002293;28;20208;-78
2024/01/14 03:41:31;;;;;;;11.63;9.70;;;;;;;2.38;100.00;99450.31;4994820;28;20203;-78
2024/01/14 03:43:57;;;;;;;14.17;8.97;;;;;;;2.50;100.00;99449.44;4994135;28;20672;-78
2024/01/14 03:46:24;;;;;;;15.10;9.97;;;;;;;2.35;100.00;99447.75;4994516;28;20231;-79
2024/01/14 03:48:52;;;;;;;11.67;8.97;;;;;;;2.51;100.00;99427.97;4995440;28;20260;-78
2024/01/14 03:51:20;;;;;;;10.30;8.83;;;;;;;2.41;100.00;99430.59;4994684;28;20207;-77
2024/01/14 03:53:46;;;;;;;9.53;7.43;;;;;;;2.41;100.00;99438.31;4995509;28;20209;-76
2024/01/14 03:56:13;;;;;;;11.97;7.97;;;;;;;2.41;100.00;99433.16;4994743;28;20315;-77
2024/01/14 03:58:39;;;;;;;9.83;7.60;;;;;;;2.43;100.00;99436.59;4993298;28;20251;-79
2024/01/14 04:01:05;;;;;;;8.10;6.50;;;;;;;2.29;100.00;99436.59;4992704;28;20209;-78
2024/01/14 04:03:32;;;;;;;7.60;6.90;;;;;;;2.35;100.00;99441.75;4995696;28;20254;-79
2024/01/14 04:06:04;;;;;;;7.53;6.77;;;;;;;2.34;100.00;99440.03;4995597;28;20228;-78
2024/01/14 04:08:32;;;;;;;8.07;7.27;;;;;;;2.58;100.00;99439.97;4988094;28;20250;-79
2024/01/14 04:10:58;;;;;;;9.37;7.33;;;;;;;2.44;100.00;99457.19;4995761;28;20216;-78
2024/01/14 04:13:24;;;;;;;7.20;6.50;;;;;;;2.43;100.00;99470.06;4986905;28;20215;-78
2024/01/14 04:15:51;;;;;;;6.43;5.83;;;;;;;2.33;100.00;99464.06;4993605;28;20259;-78
2024/01/14 04:18:17;;;;;;;6.27;5.67;;;;;;;2.45;100.00;99450.31;4993885;28;20207;-78
2024/01/14 04:20:44;;;;;;;6.47;5.73;;;;;;;2.49;100.00;99454.59;4994154;28;20199;-78
2024/01/14 04:23:10;;;;;;;7.17;5.43;;;;;;;2.28;100.00;99456.34;4994736;28;20262;-78
2024/01/14 04:25:38;;;;;;;6.07;5.40;;;;;;;2.41;100.00;99458.91;4993575;28;20224;-78
2024/01/14 04:28:05;;;;;;;5.03;4.50;;;;;;;2.47;100.00;99458.91;4993524;28;20632;-78
2024/01/14 04:30:31;;;;;;;5.07;4.43;;;;;;;2.56;100.00;99456.31;4995204;28;20208;-78
2024/01/14 04:32:58;;;;;;;5.20;4.70;;;;;;;2.41;100.00;99464.91;4994866;28;20212;-78
2024/01/14 04:35:25;;;;;;;4.03;3.63;;;;;;;2.44;100.00;99467.50;4993432;28;20278;-77
2024/01/14 04:37:51;;;;;;;4.37;3.97;;;;;;;2.53;100.00;99467.44;4993441;28;20758;-78
2024/01/14 04:40:18;;;;;;;5.10;4.60;;;;;;;2.28;100.00;99476.97;4989751;28;20207;-78
2024/01/14 04:42:45;;;;;;;3.63;3.33;;;;;;;2.52;100.00;99473.47;4994276;28;20627;-77
2024/01/14 04:45:12;;;;;;;3.73;3.43;;;;;;;2.31;100.00;99478.66;4994645;28;20203;-77
2024/01/14 04:47:38;;;;;;;4.17;3.77;;;;;;;2.49;100.00;99477.78;4992179;28;20223;-75
2024/01/14 04:50:05;;;;;;;3.30;3.00;;;;;;;2.33;100.00;99467.50;4993284;28;20289;-76
2024/01/14 04:52:32;;;;;;;4.40;4.00;;;;;;;2.52;100.00;99464.91;4994386;28;20263;-78
2024/01/14 04:54:58;;;;;;;4.60;4.20;;;;;;;2.59;100.00;99466.59;4994857;28;20268;-79
2024/01/14 04:57:24;;;;;;;4.13;3.73;;;;;;;2.44;100.00;99482.94;4994496;28;20199;-78
2024/01/14 04:59:52;;;;;;;5.00;4.53;;;;;;;2.58;100.00;99481.19;4994792;28;20208;-78
2024/01/14 05:02:18;;;;;;;4.90;4.40;;;;;;;2.49;100.00;99482.94;4994757;28;20232;-79
2024/01/14 05:04:45;;;;;;;5.07;4.63;;;;;;;2.58;100.00;99494.06;4994972;28;20686;-78
2024/01/14 05:07:11;;;;;;;5.33;4.47;;;;;;;2.73;100.00;99494.91;4995890;28;20644;-78
2024/01/14 05:09:37;;;;;;;5.80;5.30;;;;;;;2.50;100.00;99505.25;4994411;28;20205;-78
2024/01/14 05:12:04;;;;;;;6.67;6.07;;;;;;;2.47;100.00;99494.94;4995249;28;20232;-78
2024/01/14 05:14:30;;;;;;;5.87;5.37;;;;;;;2.70;100.00;99495.78;4997247;28;20207;-79
2024/01/14 05:16:58;;;;;;;6.53;5.83;;;;;;;2.61;100.00;99512.97;4995779;28;20636;-79
2024/01/14 05:19:24;;;;;;;8.27;6.60;;;;;;;2.62;100.00;99514.66;4995412;28;20274;-80
2024/01/14 05:21:52;;;;;;;6.20;5.70;;;;;;;2.39;100.00;99510.41;4995303;28;20740;-79
2024/01/14 05:24:18;;;;;;;6.50;5.80;;;;;;;2.45;100.00;99510.41;4997612;28;20208;-79
2024/01/14 05:26:44;;;;;;;5.43;4.93;;;;;;;2.44;100.00;99508.69;5000842;28;20784;-78
2024/01/14 05:29:13;;;;;;;6.90;6.30;;;;;;;2.38;100.00;99499.25;4999556;28;20228;-79
2024/01/14 05:31:40;;;;;;;7.87;7.07;;;;;;;2.28;100.00;99500.13;5000273;28;20644;-78
2024/01/14 05:34:07;;;;;;;7.40;6.70;;;;;;;2.37;100.00;99488.94;4999523;28;20211;-79
2024/01/14 05:36:36;;;;;;;8.03;7.33;;;;;;;2.45;100.00;99474.34;4999170;28;20277;-79
2024/01/14 05:39:04;;;;;;;8.97;7.40;;;;;;;2.25;100.00;99488.97;4999527;28;20218;-79
2024/01/14 05:41:30;;;;;;;8.43;7.60;;;;;;;2.27;100.00;99479.53;5000134;28;20211;-78
2024/01/14 05:43:57;;;;;;;10.37;7.50;;;;;;;2.51;100.00;99484.63;4999307;28;20242;-80
2024/01/14 05:46:23;;;;;;;8.57;7.03;;;;;;;2.48;100.00;99486.34;4999923;28;20236;-78
2024/01/14 05:48:50;;;;;;;13.20;7.70;;;;;;;2.66;100.00;99491.50;4998693;28;20205;-79
2024/01/14 05:51:17;;;;;;;9.93;9.00;;;;;;;2.60;100.00;99504.38;4999450;28;20644;-78
2024/01/14 05:53:46;;;;;;;9.10;8.20;;;;;;;2.52;100.00;99514.69;4998997;28;20231;-80
2024/01/14 05:56:12;;;;;;;8.63;7.50;;;;;;;2.37;100.00;99505.25;4999436;28;20240;-79
2024/01/14 05:58:41;;;;;;;9.33;8.27;;;;;;;2.41;100.00;99502.69;4997982;28;20199;-78
2024/01/14 06:01:08;;;;;;;9.63;8.23;;;;;;;2.48;100.00;99489.81;4998156;28;20222;-79
2024/01/14 06:03:34;;;;;;;9.13;8.20;;;;;;;2.72;100.00;99499.19;4999034;28;20204;-79
2024/01/14 06:06:03;;;;;;;8.97;8.07;;;;;;;2.53;100.00;99485.50;4999100;28;20270;-79
2024/01/14 06:08:32;;;;;;;11.87;7.80;;;;;;;2.71;100.00;99471.69;4997788;28;20277;-79
2024/01/14 06:10:59;;;;;;;8.97;8.07;;;;;;;2.65;100.00;99483.75;4997867;28;20278;-77
2024/01/14 06:13:25;;;;;;;9.70;8.70;;;;;;;2.57;100.00;99478.63;4995860;28;20768;-77
2024/01/14 06:15:51;;;;;;;12.07;10.90;;;;;;;2.64;100.00;99471.75;4996217;28;20235;-79
2024/01/14 06:18:18;;;;;;;11.50;10.27;;;;;;;2.63;100.00;99470.03;4996622;28;20679;-80
2024/01/14 06:20:44;;;;;;;13.27;9.33;;;;;;;2.62;100.00;99483.75;4996756;28;20204;-79
2024/01/14 06:23:10;;;;;;;12.27;9.60;;;;;;;2.56;100.00;99464.88;4996830;28;20214;-79
2024/01/14 06:25:38;;;;;;;10.73;9.53;;;;;;;2.64;100.00;99480.34;4997417;28;20224;-79
2024/01/14 06:28:06;;;;;;;12.90;8.60;;;;;;;2.71;100.00;99483.75;4995869;28;20208;-79
2024/01/14 06:30:33;;;;;;;10.60;8.77;;;;;;;2.74;100.00;99476.00;4997272;28;20231;-79
2024/01/14 06:32:59;;;;;;;10.87;9.07;;;;;;;2.64;100.00;99490.63;4997488;28;20270;-78
2024/01/14 06:35:26;;;;;;;13.57;9.43;;;;;;;2.55;100.00;99486.34;4997245;28;20238;-78
2024/01/14 06:37:52;;;;;;;10.93;9.23;;;;;;;2.49;100.00;99498.38;4996194;28;20232;-78
2024/01/14 06:40:18;;;;;;;12.37;9.37;;;;;;;2.41;100.00;99479.50;4995826;28;20235;-80
2024/01/14 06:42:46;;;;;;;11.83;9.37;;;;;;;2.58;100.00;99463.16;4994951;28;20208;-78
2024/01/14 06:45:13;;;;;;;17.33;9.23;;;;;;;2.69;100.00;99464.84;4996464;28;20204;-76
2024/01/14 06:47:39;;;;;;;9.93;8.90;;;;;;;2.62;100.00;99484.63;4997003;28;20195;-78
2024/01/14 06:50:07;;;;;;;9.70;7.80;;;;;;;2.60;100.00;99473.47;4998451;28;20215;-77
2024/01/14 06:52:33;;;;;;;9.67;7.30;;;;;;;2.53;100.00;99477.75;4995970;28;20690;-80
2024/01/14 06:54:59;;;;;;;8.47;7.53;;;;;;;2.44;100.00;99482.94;4997422;28;20203;-78
2024/01/14 06:57:26;;;;;;;8.27;7.20;;;;;;;2.67;100.00;99482.88;4996858;28;20599;-77
2024/01/14 06:59:53;;;;;;;9.47;7.60;;;;;;;2.56;100.00;99476.91;4995949;28;20226;-77
2024/01/14 07:02:20;;;;;;;9.50;8.53;;;;;;;2.48;100.00;99476.94;4995429;28;20667;-77
2024/01/14 07:04:48;;;;;;;10.87;8.37;;;;;;;2.46;100.00;99488.94;4995584;28;20208;-77
2024/01/14 07:07:14;;;;;;;10.97;7.80;;;;;;;2.34;100.00;99492.41;4997124;28;20227;-79
2024/01/14 07:09:41;;;;;;;10.13;6.90;;;;;;;2.59;100.00;99502.66;4996384;28;20212;-78
2024/01/14 07:12:07;;;;;;;9.93;6.70;;;;;;;2.55;100.00;99519.81;4996011;28;20266;-78
2024/01/14 07:14:34;;;;;;;6.83;5.60;;;;;;;2.38;100.00;99526.75;4994349;28;20239;-78
2024/01/14 07:17:01;;;;;;;13.53;6.53;;;;;;;2.39;100.00;99524.13;4994696;28;20307;-78
2024/01/14 07:19:28;;;;;;;10.53;5.27;;;;;;;2.47;100.00;99533.59;4994913;28;20588;-79
2024/01/14 07:21:54;;;;;;;7.57;5.10;;;;;;;2.38;100.00;99527.59;4997147;28;20262;-79
2024/01/14 07:24:21;;;;;;;9.17;5.43;;;;;;;2.69;100.00;99529.25;4996309;28;20553;-80
2024/01/14 07:26:47;;;;;;;8.00;5.97;;;;;;;2.77;100.00;99556.75;4996143;28;20363;-79
2024/01/14 07:29:13;;;;;;;10.97;6.97;;;;;;;2.90;100.00;99567.03;4995831;28;20208;-77
2024/01/14 07:31:40;;;;;;;13.70;6.00;;;;;;;2.77;100.00;99591.94;4989131;28;20284;-79
2024/01/14 07:34:08;;;;;;;9.53;7.13;;;;;;;3.01;100.00;99592.78;4996209;28;20208;-79
2024/01/14 07:36:34;;;;;;;10.57;6.70;;;;;;;2.85;100.00;99617.72;4996681;28;20238;-78
2024/01/14 07:39:02;;;;;;;10.07;8.50;;;;;;;2.86;100.00;99601.41;4995317;28;20259;-79
2024/01/14 07:41:29;;;;;;;8.17;7.23;;;;;;;3.01;100.00;99596.19;4999146;28;20211;-76
2024/01/14 07:43:55;;;;;;;10.30;8.70;;;;;;;2.89;100.00;99602.25;5001320;28;20207;-78
2024/01/14 07:46:22;;;;;;;12.13;9.20;;;;;;;2.99;100.00;99592.78;5000244;28;20282;-78
2024/01/14 07:48:48;;;;;;;16.53;9.80;;;;;;;2.96;100.00;99585.91;5003118;28;20205;-78
2024/01/14 07:51:16;;;;;;;12.07;9.00;;;;;;;3.00;100.00;99586.78;5001546;28;20216;-77
2024/01/14 07:53:42;;;;;;;14.13;9.17;;;;;;;3.06;100.00;99583.31;5005431;28;20206;-78
2024/01/14 07:56:09;;;;;;;14.73;9.30;;;;;;;3.21;100.00;99582.41;5002415;28;20266;-77
2024/01/14 07:58:35;;;;;;;11.60;8.03;;;;;;;2.88;100.00;99599.69;5002691;28;20205;-78
2024/01/14 08:01:02;;;;;;;13.37;8.70;;;;;;;3.24;100.00;99592.72;5005188;28;20269;-77
2024/01/14 08:03:28;;;;;;;12.00;7.80;;;;;;;3.10;100.00;99606.50;5006012;28;20223;-77
2024/01/14 08:05:55;;;;;;;9.43;8.33;;;;;;;3.05;100.00;99604.78;5006092;28;20767;-79
2024/01/14 08:08:23;;;;;;;11.83;8.03;;;;;;;3.17;100.00;99607.34;5003805;28;20232;-78
2024/01/14 08:10:49;;;;;;;12.00;8.63;;;;;;;3.08;100.00;99608.22;5007090;28;20227;-78
2024/01/14 08:13:16;;;;;;;9.13;7.00;;;;;;;3.19;100.00;99613.34;5006503;28;20660;-76
2024/01/14 08:15:42;;;;;;;13.97;8.23;;;;;;;3.08;100.00;99628.84;5007703;28;20223;-76
2024/01/14 08:18:09;;;;;;;11.40;7.87;;;;;;;3.37;100.00;99626.22;5002857;28;20204;-78
2024/01/14 08:20:35;;;;;;;9.77;7.93;;;;;;;3.28;100.00;99644.28;5006471;28;20208;-78
2024/01/14 08:23:02;;;;;;;14.13;10.80;;;;;;;3.29;100.00;99639.97;5004932;28;20216;-79
2024/01/14 08:25:30;;;;;;;14.40;11.10;;;;;;;3.23;100.00;99640.00;5006205;28;20247;-78
2024/01/14 08:27:56;;;;;;;11.43;10.00;;;;;;;3.43;100.00;99652.84;5003764;28;20241;-78
2024/01/14 08:30:23;;;;;;;9.57;7.43;;;;;;;3.23;100.00;99648.63;5006621;28;20208;-77
2024/01/14 08:32:50;;;;;;;9.10;7.27;;;;;;;3.42;100.00;99656.31;5007278;28;20202;-77
2024/01/14 08:35:17;;;;;;;7.43;6.73;;;;;;;3.34;100.00;99653.75;4997840;28;20208;-78
2024/01/14 08:37:44;;;;;;;7.77;6.73;;;;;;;3.10;100.00;99647.75;4993417;28;20264;-77
2024/01/14 08:40:12;;;;;;;6.60;5.77;;;;;;;3.35;100.00;99646.00;4997385;28;20731;-78
2024/01/14 08:42:43;;;;;;;6.90;6.20;;;;;;;3.57;100.00;99648.53;4993830;28;20208;-78
2024/01/14 08:45:12;;;;;;;6.27;5.67;;;;;;;3.55;100.00;99666.59;4995702;28;20212;-79
2024/01/14 08:47:39;;;;;;;5.53;4.93;;;;;;;3.32;100.00;99682.09;4994966;28;20204;-79
2024/01/14 08:50:07;;;;;;;4.87;4.37;;;;;;;3.00;100.00;99686.47;4994512;28;20223;-79
2024/01/14 08:52:33;;;;;;;5.70;4.97;;;;;;;3.24;100.00;99659.78;4994439;28;20361;-79
2024/01/14 08:55:00;;;;;;;5.60;4.90;;;;;;;3.11;100.00;99664.97;4995731;28;20222;-79
2024/01/14 08:57:26;;;;;;;5.53;4.87;;;;;;;2.96;100.00;99650.34;4993465;28;20457;-78
2024/01/14 08:59:54;;;;;;;5.23;4.20;;;;;;;2.86;100.00;99640.06;5002236;28;20251;-78
2024/01/14 09:02:20;;;;;;;5.20;4.70;;;;;;;3.03;100.00;99624.56;5006558;28;20204;-77
2024/01/14 09:04:49;;;;;;;14.03;12.67;;;;;;;2.95;100.00;99616.84;5006651;28;20741;-77
2024/01/14 09:07:16;;;;;;;6.77;6.10;;;;;;;2.90;100.00;99605.69;5003965;28;20592;-78
2024/01/14 09:09:42;;;;;;;4.63;4.20;;;;;;;3.21;100.00;99605.63;5008626;28;20247;-78
2024/01/14 09:12:08;;;;;;;6.73;4.63;;;;;;;3.36;100.00;99621.91;5005948;28;20215;-76
2024/01/14 09:14:36;;;;;;;4.77;4.40;;;;;;;3.26;100.00;99635.69;5007273;28;20210;-78
2024/01/14 09:17:04;;;;;;;4.63;4.23;;;;;;;3.34;100.00;99649.44;5007670;28;20293;-76
2024/01/14 09:19:30;;;;;;;4.70;4.30;;;;;;;3.44;100.00;99649.41;5009012;28;20671;-77
2024/01/14 09:21:57;;;;;;;5.30;4.73;;;;;;;3.29;100.00;99663.19;5007770;28;20694;-79
2024/01/14 09:24:23;;;;;;;4.43;4.03;;;;;;;3.42;100.00;99653.72;5008832;28;20672;-79
2024/01/14 09:26:49;;;;;;;5.43;4.90;;;;;;;3.24;100.00;99657.19;5005190;28;20629;-76
2024/01/14 09:29:16;;;;;;;5.73;5.23;;;;;;;3.28;100.00;99654.59;5007674;28;20200;-77
2024/01/14 09:31:42;;;;;;;6.87;6.17;;;;;;;3.09;100.00;99651.22;5009076;28;20196;-75
2024/01/14 09:34:10;;;;;;;5.83;5.23;;;;;;;3.19;100.00;99628.81;5007124;28;20224;-78
2024/01/14 09:36:38;;;;;;;10.60;7.63;;;;;;;3.09;100.00;99611.66;5007877;28;20282;-78
2024/01/14 09:39:05;;;;;;;6.60;6.00;;;;;;;2.96;100.00;99591.06;5005893;28;20204;-79
2024/01/14 09:41:37;;;;;;;7.13;6.40;;;;;;;2.81;100.00;99555.00;5008299;28;20567;-79
2024/01/14 09:44:05;;;;;;;6.50;5.90;;;;;;;2.90;100.00;99534.38;5005850;28;20219;-79
2024/01/14 09:46:33;;;;;;;9.83;7.17;;;;;;;3.08;100.00;99517.16;5008066;28;20630;-77
2024/01/14 09:49:02;;;;;;;8.40;7.47;;;;;;;2.90;100.00;99516.34;5003957;28;20210;-76
2024/01/14 09:51:30;;;;;;;8.03;7.23;;;;;;;2.86;100.00;99521.50;5008211;28;20231;-77
2024/01/14 09:53:58;;;;;;;9.03;8.13;;;;;;;2.84;100.00;99513.78;5008574;28;20683;-79
2024/01/14 09:56:25;;;;;;;10.27;7.40;;;;;;;2.70;100.00;99470.00;5009423;28;20227;-78
2024/01/14 09:58:54;;;;;;;8.47;7.57;;;;;;;2.69;100.00;99457.13;5007048;28;20213;-77
2024/01/14 10:01:22;;;;;;;10.23;7.87;;;;;;;2.77;100.00;99433.06;5008460;28;20212;-79
2024/01/14 10:03:50;;;;;;;8.37;7.30;;;;;;;3.03;100.00;99424.34;5008930;28;20217;-79
2024/01/14 10:06:17;;;;;;;10.60;8.13;;;;;;;3.02;100.00;99438.09;5008665;28;20228;-80
2024/01/14 10:08:44;;;;;;;11.00;9.77;;;;;;;3.22;100.00;99444.88;5023642;28;20191;-77
2024/01/14 10:11:11;;;;;;;10.13;8.67;;;;;;;3.14;100.00;99444.94;5019858;28;20208;-78
2024/01/14 10:13:37;;;;;;;9.33;8.43;;;;;;;3.35;100.00;99456.84;5023870;28;20188;-77
2024/01/14 10:16:04;;;;;;;10.23;8.63;;;;;;;3.20;100.00;99473.25;5013663;28;20777;-76
2024/01/14 10:18:31;;;;;;;10.60;9.60;;;;;;;3.28;100.00;99461.19;5022595;28;20276;-78
2024/01/14 10:20:57;;;;;;;11.97;9.50;;;;;;;3.45;100.00;99468.84;4998285;28;20208;-79
2024/01/14 10:23:23;;;;;;;11.03;9.83;;;;;;;3.24;100.00;99477.53;4997386;28;20208;-78
2024/01/14 10:25:52;;;;;;;14.20;9.63;;;;;;;3.13;100.00;99485.34;4997776;28;20223;-80
2024/01/14 10:28:20;;;;;;;11.83;9.13;;;;;;;3.15;100.00;99468.13;4996669;28;20212;-79
2024/01/14 10:30:47;;;;;;;12.43;9.20;;;;;;;3.28;100.00;99461.19;4996789;28;20746;-77
2024/01/14 10:33:13;;;;;;;10.73;9.00;;;;;;;3.50;100.00;99472.22;4996313;28;20621;-78
2024/01/14 10:35:40;;;;;;;10.67;9.13;;;;;;;3.56;100.00;99485.09;5004137;28;20284;-79
2024/01/14 10:38:06;;;;;;;12.53;9.43;;;;;;;3.61;100.00;99510.00;5001723;28;20224;-80
2024/01/14 10:40:32;;;;;;;10.13;9.13;;;;;;;3.31;100.00;99525.66;4998918;28;20254;-79
2024/01/14 10:43:02;;;;;;;10.50;9.40;;;;;;;3.43;100.00;99529.91;4996837;28;20605;-79
2024/01/14 10:45:28;;;;;;;11.37;9.13;;;;;;;3.52;100.00;99518.66;4996869;28;20248;-77
2024/01/14 10:47:58;;;;;;;9.17;8.27;;;;;;;3.80;100.00;99527.09;4997338;28;20209;-80
2024/01/14 10:50:27;;;;;;;11.10;8.63;;;;;;;3.58;100.00;99534.97;4998141;28;20679;-79
2024/01/14 10:52:55;;;;;;;8.53;7.40;;;;;;;3.57;100.00;99543.59;5001394;28;20912;-78
2024/01/14 10:55:34;;;;;;;9.83;7.40;;;;;;;3.82;100.00;99540.00;4994987;28;20267;-77
2024/01/14 10:58:04;;;;;;;8.00;7.20;;;;;;;3.61;100.00;99565.06;4993488;28;20281;-78
2024/01/14 11:00:40;;;;;;;9.57;8.57;;;;;;;3.46;100.00;99547.09;4997638;28;20213;-79
2024/01/14 11:03:08;;;;;;;8.90;8.00;;;;;;;3.36;100.00;99546.25;4989490;28;20211;-79
2024/01/14 11:05:36;;;;;;;12.77;9.57;;;;;;;3.25;100.00;99542.84;4994616;28;20255;-78
2024/01/14 11:08:03;;;;;;;11.87;10.33;;;;;;;3.52;100.00;99531.56;4997646;28;20263;-78
2024/01/14 11:10:32;;;;;;;10.40;9.40;;;;;;;3.60;100.00;99516.06;4999417;28;20210;-78
2024/01/14 11:13:08;;;;;;;10.70;9.70;;;;;;;3.46;100.00;99521.28;5002101;28;20212;-78
2024/01/14 11:15:44;;;;;;;10.70;9.33;;;;;;;3.23;100.00;99511.06;5004717;28;20224;-79
2024/01/14 11:18:17;;;;;;;11.13;9.60;;;;;;;3.30;100.00;99499.88;5003401;28;20228;-79
2024/01/14 11:20:47;;;;;;;8.90;8.07;;;;;;;3.44;100.00;99490.31;5002679;28;20209;-77
2024/01/14 11:23:13;;;;;;;10.53;8.73;;;;;;;3.45;100.00;99491.19;5005150;28;20200;-78
2024/01/14 11:25:45;;;;;;;10.80;8.47;;;;;;;3.21;100.00;99487.88;5006206;28;20228;-78